Pennington, California
Current Conditions -  °F | °C
As of 5:53 AM on Friday 19 Dec 2014 (Local Time) from KMYV Reporting Station
Overcast Overcast  
Wind Chill: 53°   Ceiling: 4000
Heat Index: 53°   Visibility: 10mi
Dew Point: 47°   Wind: 14mph
Humidity: 80%   Direction: 150°SSE
Pressure: 30.11"   Gusts: NA
Location:  39.2462°N, 121.778°W
Report Text: KMYV 191353Z AUTO 15012KT 10SM OVC040 12/08 A3011 RMK AO2 RAB08E17 SLP200 P0000 T01170083
Loading
Personal Weather Stations






























Interactive Weather Map New forecast layout! Learn more

10-Day Weather Forecast

Advertisements
Track Severe Weather on mobile